createdAt,value
2018-05-08T00:00:01.285Z,4.00
2018-05-08T00:01:01.300Z,4.00
2018-05-08T00:02:01.320Z,4.00
2018-05-08T00:03:01.342Z,4.00
2018-05-08T00:04:01.355Z,4.00
2018-05-08T00:05:01.390Z,4.00
2018-05-08T00:06:01.393Z,4.00
2018-05-08T00:07:01.411Z,4.00
2018-05-08T00:08:01.431Z,4.00
2018-05-08T00:09:01.461Z,4.00
2018-05-08T00:10:01.499Z,4.00
2018-05-08T00:11:01.484Z,4.00
2018-05-08T00:12:01.503Z,4.00
2018-05-08T00:13:01.521Z,4.00
2018-05-08T00:14:01.538Z,4.00
2018-05-08T00:15:01.558Z,4.00
2018-05-08T00:16:01.576Z,4.00
2018-05-08T00:17:01.605Z,4.00
2018-05-08T00:18:01.764Z,4.00
2018-05-08T00:19:01.806Z,4.00
2018-05-08T00:20:01.822Z,4.00
2018-05-08T00:21:02.077Z,4.00
2018-05-08T00:22:01.688Z,4.00
2018-05-08T00:23:01.703Z,4.00
2018-05-08T00:24:01.724Z,4.00
2018-05-08T00:25:01.742Z,4.00
2018-05-08T00:26:01.754Z,4.00
2018-05-08T00:27:01.771Z,4.00
2018-05-08T00:28:01.794Z,4.00
2018-05-08T00:29:01.808Z,4.00
2018-05-08T00:30:01.826Z,4.00
2018-05-08T00:31:01.845Z,4.00
2018-05-08T00:32:01.863Z,4.00
2018-05-08T00:33:01.882Z,4.00
2018-05-08T00:34:01.900Z,4.00
2018-05-08T00:35:01.917Z,4.00
2018-05-08T00:36:01.934Z,4.00
2018-05-08T00:37:01.953Z,4.00
2018-05-08T00:38:01.972Z,4.00
2018-05-08T00:39:01.997Z,4.00
2018-05-08T00:40:02.019Z,4.00
2018-05-08T00:41:02.027Z,4.00
2018-05-08T00:42:02.044Z,4.00
2018-05-08T00:43:02.065Z,4.00
2018-05-08T00:44:02.080Z,4.00
2018-05-08T00:45:02.099Z,4.00
2018-05-08T00:46:02.128Z,4.00
2018-05-08T00:47:02.138Z,4.00
2018-05-08T00:48:02.156Z,4.00
2018-05-08T00:49:02.169Z,4.00
2018-05-08T00:50:02.188Z,4.00
2018-05-08T00:51:02.512Z,4.00
2018-05-08T00:52:02.233Z,4.00
2018-05-08T00:53:02.293Z,4.00
2018-05-08T00:54:02.312Z,4.00
2018-05-08T00:55:02.322Z,4.00
2018-05-08T00:56:02.295Z,4.00
2018-05-08T00:57:02.315Z,4.00
2018-05-08T00:58:02.331Z,4.00
2018-05-08T00:59:02.361Z,4.00
2018-05-08T01:00:02.366Z,4.00
2018-05-08T01:01:02.384Z,4.00
2018-05-08T01:02:02.403Z,4.00
2018-05-08T01:03:02.422Z,4.00
2018-05-08T01:04:02.443Z,4.00
2018-05-08T01:05:02.573Z,4.00
2018-05-08T01:06:02.476Z,4.00
2018-05-08T01:07:02.493Z,4.00
2018-05-08T01:08:02.511Z,4.00
2018-05-08T01:09:02.527Z,4.00
2018-05-08T01:10:02.547Z,4.00
2018-05-08T01:11:02.569Z,4.00
2018-05-08T01:12:02.581Z,4.00
2018-05-08T01:13:02.598Z,4.00
2018-05-08T01:14:02.626Z,4.00
2018-05-08T01:15:02.638Z,4.00
2018-05-08T01:16:02.652Z,4.00
2018-05-08T01:17:02.763Z,4.00
2018-05-08T01:18:02.690Z,4.00
2018-05-08T01:19:02.705Z,4.00
2018-05-08T01:20:02.727Z,4.00
2018-05-08T01:21:02.748Z,4.00
2018-05-08T01:22:02.761Z,4.00
2018-05-08T01:23:02.777Z,4.00
2018-05-08T01:24:02.795Z,4.00
2018-05-08T01:25:02.815Z,4.00
2018-05-08T01:26:02.830Z,4.00
2018-05-08T01:27:02.849Z,4.00
2018-05-08T01:28:02.866Z,4.00
2018-05-08T01:30:03.008Z,4.00
2018-05-08T01:32:02.939Z,4.00
2018-05-08T01:33:02.961Z,4.00
2018-05-08T01:34:02.974Z,4.00
2018-05-08T01:35:02.993Z,4.00
2018-05-08T01:36:03.009Z,4.00
2018-05-08T01:37:03.028Z,4.00
2018-05-08T01:38:03.044Z,4.00
2018-05-08T01:39:03.060Z,4.00
2018-05-08T01:40:03.091Z,4.00
2018-05-08T01:41:03.097Z,4.00
2018-05-08T01:42:03.121Z,4.00
2018-05-08T01:43:03.134Z,4.00
2018-05-08T01:44:03.150Z,4.00
2018-05-08T01:45:03.168Z,4.00
2018-05-08T01:46:03.187Z,4.00
2018-05-08T01:47:03.204Z,4.00
2018-05-08T01:48:03.225Z,4.00
2018-05-08T01:49:03.240Z,4.00
2018-05-08T01:50:03.256Z,4.00
2018-05-08T01:51:03.276Z,4.00
2018-05-08T01:52:03.293Z,4.00
2018-05-08T01:53:03.310Z,4.00
2018-05-08T01:54:03.333Z,4.00
2018-05-08T01:55:03.344Z,4.00
2018-05-08T01:56:03.362Z,4.00
2018-05-08T01:57:03.383Z,4.00
2018-05-08T01:58:03.401Z,4.00
2018-05-08T01:59:03.416Z,4.00
2018-05-08T02:00:03.434Z,4.00
2018-05-08T02:01:03.449Z,4.00
2018-05-08T02:02:03.474Z,4.00
2018-05-08T02:03:03.787Z,4.00
2018-05-08T02:04:03.725Z,4.00
2018-05-08T02:05:03.524Z,4.00
2018-05-08T02:06:03.542Z,4.00
2018-05-08T02:07:03.565Z,4.00
2018-05-08T02:08:03.575Z,4.00
2018-05-08T02:09:03.593Z,4.00
2018-05-08T02:10:03.611Z,4.00
2018-05-08T02:11:03.632Z,4.00
2018-05-08T02:12:03.645Z,4.00
2018-05-08T02:13:03.663Z,4.00
2018-05-08T02:14:03.679Z,4.00
2018-05-08T02:15:03.697Z,4.00
2018-05-08T02:16:03.830Z,4.00
2018-05-08T02:17:03.739Z,4.00
2018-05-08T02:18:03.752Z,4.00
2018-05-08T02:19:03.766Z,4.00
2018-05-08T02:20:03.807Z,4.00
2018-05-08T02:21:03.800Z,4.00
2018-05-08T02:22:03.820Z,4.00
2018-05-08T02:23:03.836Z,4.00
2018-05-08T02:24:03.854Z,4.00
2018-05-08T02:25:03.886Z,4.00
2018-05-08T02:26:03.895Z,4.00
2018-05-08T02:27:03.908Z,4.00
2018-05-08T02:28:03.923Z,4.00
2018-05-08T02:29:03.942Z,4.00
2018-05-08T02:30:03.960Z,4.00
2018-05-08T02:31:03.976Z,4.00
2018-05-08T02:32:04.008Z,4.00
2018-05-08T02:33:04.021Z,4.00
2018-05-08T02:34:04.031Z,4.00
2018-05-08T02:35:04.047Z,4.00
2018-05-08T02:36:04.068Z,4.00
2018-05-08T02:37:04.383Z,4.00
2018-05-08T02:38:04.435Z,4.00
2018-05-08T02:39:04.117Z,4.00
2018-05-08T02:40:04.138Z,4.00
2018-05-08T02:41:04.156Z,4.00
2018-05-08T02:42:04.173Z,4.00
2018-05-08T02:43:04.188Z,4.00
2018-05-08T02:44:04.207Z,4.00
2018-05-08T02:45:04.220Z,4.00
2018-05-08T02:46:04.239Z,4.00
2018-05-08T02:47:04.256Z,4.00
2018-05-08T02:48:04.273Z,4.00
2018-05-08T02:49:04.303Z,4.00
2018-05-08T02:50:04.308Z,4.00
2018-05-08T02:51:04.366Z,4.00
2018-05-08T02:52:04.344Z,4.00
2018-05-08T02:53:04.361Z,4.00
2018-05-08T02:54:04.387Z,4.00
2018-05-08T02:55:04.395Z,4.00
2018-05-08T02:56:04.415Z,4.00
2018-05-08T02:57:04.447Z,4.00
2018-05-08T02:58:04.462Z,4.00
2018-05-08T02:59:04.477Z,4.00
2018-05-08T03:00:04.517Z,4.00
2018-05-08T03:01:04.503Z,4.00
2018-05-08T03:02:04.517Z,4.00
2018-05-08T03:03:04.532Z,4.00
2018-05-08T03:04:04.560Z,4.00
2018-05-08T03:05:04.572Z,4.00
2018-05-08T03:06:04.586Z,4.00
2018-05-08T03:07:04.616Z,4.00
2018-05-08T03:08:04.727Z,4.00
2018-05-08T03:09:04.651Z,4.00
2018-05-08T03:10:05.005Z,4.00
2018-05-08T03:11:04.692Z,4.00
2018-05-08T03:12:04.688Z,0.00
2018-05-08T03:13:04.708Z,0.00
2018-05-08T03:14:04.746Z,4.00
2018-05-08T03:15:04.742Z,4.00
2018-05-08T03:16:04.759Z,4.00
2018-05-08T03:17:04.778Z,4.00
2018-05-08T03:18:04.796Z,4.00
2018-05-08T03:19:04.815Z,4.00
2018-05-08T03:20:04.828Z,4.00
2018-05-08T03:21:04.845Z,8.00
2018-05-08T03:22:04.857Z,4.00
2018-05-08T03:23:04.877Z,8.00
2018-05-08T03:24:04.892Z,8.00
2018-05-08T03:25:04.911Z,4.00
2018-05-08T03:26:04.927Z,4.00
2018-05-08T03:27:04.945Z,8.00
2018-05-08T03:28:04.960Z,8.00
2018-05-08T03:29:04.978Z,8.00
2018-05-08T03:30:05.007Z,12.00
2018-05-08T03:31:05.017Z,12.00
2018-05-08T03:32:05.029Z,16.00
2018-05-08T03:33:05.046Z,16.00
2018-05-08T03:34:05.065Z,20.00
2018-05-08T03:35:05.081Z,20.00
2018-05-08T03:36:05.099Z,24.00
2018-05-08T03:37:05.124Z,28.00
2018-05-08T03:38:05.138Z,28.00
2018-05-08T03:39:05.150Z,32.00
2018-05-08T03:40:05.172Z,36.00
2018-05-08T03:41:05.200Z,40.00
2018-05-08T03:44:05.236Z,56.00
2018-05-08T03:45:05.253Z,60.00
2018-05-08T03:46:05.271Z,64.00
2018-05-08T03:47:05.297Z,68.00
2018-05-08T03:48:05.309Z,76.00
2018-05-08T03:49:05.322Z,84.00
2018-05-08T03:50:05.340Z,88.00
2018-05-08T03:51:05.356Z,96.00
2018-05-08T03:52:05.578Z,104.00
2018-05-08T03:53:05.391Z,112.00
2018-05-08T03:54:05.410Z,120.00
2018-05-08T03:55:05.425Z,128.00
2018-05-08T03:56:05.441Z,136.00
2018-05-08T03:57:05.467Z,144.00
2018-05-08T03:58:05.476Z,156.00
2018-05-08T03:59:05.492Z,164.00
2018-05-08T04:00:05.511Z,176.00
2018-05-08T04:01:05.824Z,188.00
2018-05-08T04:02:05.801Z,196.00
2018-05-08T04:03:06.027Z,204.00
2018-05-08T04:04:05.759Z,212.00
2018-05-08T04:05:05.697Z,224.00
2018-05-08T04:06:05.816Z,236.00
2018-05-08T04:07:05.633Z,244.00
2018-05-08T04:08:05.647Z,256.00
2018-05-08T04:09:05.670Z,272.00
2018-05-08T04:10:05.683Z,284.00
2018-05-08T04:11:05.698Z,292.00
2018-05-08T04:12:05.716Z,308.00
2018-05-08T04:13:05.733Z,320.00
2018-05-08T04:14:05.751Z,328.00
2018-05-08T04:15:05.802Z,344.00
2018-05-08T04:16:05.785Z,356.00
2018-05-08T04:18:06.405Z,384.00
2018-05-08T04:19:05.843Z,396.00
2018-05-08T04:20:05.857Z,408.00
2018-05-08T04:21:05.905Z,424.00
2018-05-08T04:22:05.904Z,432.00
2018-05-08T04:23:05.906Z,448.00
2018-05-08T04:24:05.923Z,460.00
2018-05-08T04:25:05.947Z,476.00
2018-05-08T04:26:05.964Z,492.00
2018-05-08T04:27:05.986Z,504.00
2018-05-08T04:28:05.992Z,520.00
2018-05-08T04:29:06.009Z,544.00
2018-05-08T04:30:06.027Z,732.00
2018-05-08T04:31:06.423Z,944.00
2018-05-08T04:32:06.068Z,1264.00
2018-05-08T04:33:06.077Z,1940.00
2018-05-08T04:34:06.094Z,2344.00
2018-05-08T04:35:06.109Z,2040.00
2018-05-08T04:36:06.132Z,1776.00
2018-05-08T04:37:06.147Z,1240.00
2018-05-08T04:38:06.161Z,984.00
2018-05-08T04:39:06.193Z,840.00
2018-05-08T04:40:06.216Z,724.00
2018-05-08T04:41:06.215Z,724.00
2018-05-08T04:42:06.243Z,736.00
2018-05-08T04:43:06.252Z,744.00
2018-05-08T04:44:06.275Z,756.00
2018-05-08T04:45:06.284Z,760.00
2018-05-08T04:46:06.305Z,772.00
2018-05-08T04:47:06.321Z,776.00
2018-05-08T04:48:06.343Z,792.00
2018-05-08T04:49:06.371Z,800.00
2018-05-08T04:50:06.367Z,816.00
2018-05-08T04:51:06.390Z,832.00
2018-05-08T04:52:06.403Z,840.00
2018-05-08T04:53:06.420Z,852.00
2018-05-08T04:54:06.443Z,868.00
2018-05-08T04:55:06.459Z,880.00
2018-05-08T04:56:06.472Z,892.00
2018-05-08T04:57:06.489Z,900.00
2018-05-08T04:58:06.508Z,912.00
2018-05-08T04:59:06.528Z,924.00
2018-05-08T05:00:06.541Z,936.00
2018-05-08T05:01:06.560Z,948.00
2018-05-08T05:02:06.600Z,964.00
2018-05-08T05:03:06.601Z,972.00
2018-05-08T05:04:06.610Z,992.00
2018-05-08T05:05:06.626Z,1004.00
2018-05-08T05:06:06.646Z,1016.00
2018-05-08T05:07:06.670Z,1032.00
2018-05-08T05:08:06.694Z,1044.00
2018-05-08T05:10:06.749Z,1068.00
2018-05-08T05:11:06.809Z,1080.00
2018-05-08T05:12:06.798Z,1088.00
2018-05-08T05:13:06.791Z,1104.00
2018-05-08T05:14:06.828Z,1116.00
2018-05-08T05:15:06.908Z,1128.00
2018-05-08T05:16:06.850Z,1140.00
2018-05-08T05:17:06.833Z,1156.00
2018-05-08T05:18:07.624Z,1176.00
2018-05-08T05:19:06.868Z,1192.00
2018-05-08T05:20:06.886Z,1208.00
2018-05-08T05:21:06.920Z,1224.00
2018-05-08T05:22:06.918Z,1240.00
2018-05-08T05:23:06.934Z,1256.00
2018-05-08T05:24:06.963Z,1272.00
2018-05-08T05:25:06.973Z,1288.00
2018-05-08T05:26:06.992Z,1308.00
2018-05-08T05:27:07.005Z,1324.00
2018-05-08T05:28:07.062Z,1340.00
2018-05-08T05:29:07.042Z,1364.00
2018-05-08T05:30:07.067Z,1380.00
2018-05-08T05:31:07.095Z,1400.00
2018-05-08T05:32:07.093Z,1420.00
2018-05-08T05:33:07.113Z,1440.00
2018-05-08T05:34:07.145Z,1452.00
2018-05-08T05:35:07.141Z,1468.00
2018-05-08T05:36:07.172Z,1484.00
2018-05-08T05:37:07.177Z,1500.00
2018-05-08T05:38:07.786Z,1512.00
2018-05-08T05:39:07.342Z,1532.00
2018-05-08T05:40:07.246Z,1564.00
2018-05-08T05:41:07.250Z,1920.00
2018-05-08T05:42:07.413Z,2412.00
2018-05-08T05:43:07.285Z,1712.00
2018-05-08T05:44:07.306Z,1608.00
2018-05-08T05:45:07.315Z,1604.00
2018-05-08T05:46:07.333Z,1608.00
2018-05-08T05:47:07.352Z,1616.00
2018-05-08T05:48:07.378Z,1624.00
2018-05-08T05:49:07.397Z,1628.00
2018-05-08T05:50:07.405Z,1640.00
2018-05-08T05:51:07.423Z,1648.00
2018-05-08T05:52:07.435Z,1652.00
2018-05-08T05:53:07.457Z,1660.00
2018-05-08T05:55:08.200Z,1676.00
2018-05-08T05:56:07.533Z,1680.00
2018-05-08T05:57:07.547Z,1692.00
2018-05-08T05:58:07.625Z,1696.00
2018-05-08T05:59:07.585Z,1704.00
2018-05-08T06:00:07.883Z,1712.00
2018-05-08T06:01:08.133Z,1724.00
2018-05-08T06:02:07.617Z,1724.00
2018-05-08T06:03:07.634Z,1732.00
2018-05-08T06:04:07.656Z,1736.00
2018-05-08T06:05:07.666Z,1744.00
2018-05-08T06:06:07.734Z,1752.00
2018-05-08T06:07:07.702Z,1764.00
2018-05-08T06:08:07.722Z,1768.00
2018-05-08T06:09:07.737Z,1772.00
2018-05-08T06:10:07.754Z,1780.00
2018-05-08T06:11:07.769Z,1788.00
2018-05-08T06:12:07.786Z,1796.00
2018-05-08T06:13:07.803Z,1812.00
2018-05-08T06:14:07.826Z,1812.00
2018-05-08T06:15:07.837Z,1824.00
2018-05-08T06:16:07.856Z,1832.00
2018-05-08T06:17:07.875Z,1840.00
2018-05-08T06:18:07.896Z,1856.00
2018-05-08T06:19:07.911Z,1860.00
2018-05-08T06:20:07.928Z,1880.00
2018-05-08T06:21:07.940Z,1884.00
2018-05-08T06:22:07.959Z,1900.00
2018-05-08T06:23:07.974Z,1908.00
2018-05-08T06:24:07.992Z,1924.00
2018-05-08T06:25:08.015Z,1936.00
2018-05-08T06:26:08.033Z,1944.00
2018-05-08T06:27:08.050Z,1956.00
2018-05-08T06:28:08.064Z,1972.00
2018-05-08T06:29:08.081Z,1980.00
2018-05-08T06:30:08.105Z,1984.00
2018-05-08T06:31:08.117Z,1996.00
2018-05-08T06:32:08.133Z,2012.00
2018-05-08T06:33:08.656Z,2020.00
2018-05-08T06:34:08.170Z,2028.00
2018-05-08T06:35:08.188Z,2040.00
2018-05-08T06:36:08.212Z,2052.00
2018-05-08T06:37:08.784Z,2060.00
2018-05-08T06:38:08.332Z,2076.00
2018-05-08T06:39:08.259Z,2084.00
2018-05-08T06:40:08.384Z,2096.00
2018-05-08T06:41:08.295Z,2112.00
2018-05-08T06:43:08.330Z,2132.00
2018-05-08T06:44:08.703Z,2144.00
2018-05-08T06:46:08.385Z,2156.00
2018-05-08T06:47:08.400Z,2160.00
2018-05-08T06:48:08.420Z,2168.00
2018-05-08T06:49:09.192Z,2184.00
2018-05-08T06:50:08.455Z,2192.00
2018-05-08T06:51:08.473Z,2204.00
2018-05-08T06:52:08.491Z,2220.00
2018-05-08T06:53:08.512Z,2236.00
2018-05-08T06:54:08.592Z,2248.00
2018-05-08T06:55:08.549Z,2264.00
2018-05-08T06:56:08.562Z,2276.00
2018-05-08T06:57:08.577Z,2292.00
2018-05-08T06:58:08.597Z,2300.00
2018-05-08T06:59:08.615Z,2316.00
2018-05-08T07:00:08.632Z,2324.00
2018-05-08T07:01:08.660Z,2332.00
2018-05-08T07:02:08.730Z,2344.00
2018-05-08T07:03:08.694Z,2352.00
2018-05-08T07:04:08.704Z,2368.00
2018-05-08T07:05:08.721Z,2368.00
2018-05-08T07:06:08.745Z,2384.00
2018-05-08T07:07:08.793Z,2396.00
2018-05-08T07:08:10.593Z,2400.00
2018-05-08T07:09:09.024Z,2412.00
2018-05-08T07:10:08.824Z,2428.00
2018-05-08T07:11:08.834Z,2432.00
2018-05-08T07:12:08.863Z,2448.00
2018-05-08T07:13:09.453Z,2452.00
2018-05-08T07:14:08.885Z,2464.00
2018-05-08T07:15:08.905Z,2480.00
2018-05-08T07:16:10.612Z,2488.00
2018-05-08T07:17:08.945Z,2496.00
2018-05-08T07:18:08.959Z,2520.00
2018-05-08T07:19:08.978Z,2520.00
2018-05-08T07:20:08.994Z,2532.00
2018-05-08T07:21:09.574Z,2544.00
2018-05-08T07:22:09.036Z,2548.00
2018-05-08T07:23:09.053Z,2564.00
2018-05-08T07:24:09.068Z,2572.00
2018-05-08T07:25:09.088Z,2588.00
2018-05-08T07:26:09.104Z,2600.00
2018-05-08T07:27:09.224Z,2560.00
2018-05-08T07:28:09.135Z,2612.00
2018-05-08T07:29:10.004Z,2632.00
2018-05-08T07:30:09.182Z,2640.00
2018-05-08T07:31:09.678Z,2652.00
2018-05-08T07:32:09.257Z,2668.00
2018-05-08T07:33:09.323Z,2684.00
2018-05-08T07:34:09.257Z,2692.00
2018-05-08T07:35:09.287Z,2696.00
2018-05-08T07:36:09.341Z,2704.00
2018-05-08T07:37:09.365Z,2696.00
2018-05-08T07:38:09.350Z,2728.00
2018-05-08T07:39:09.339Z,2732.00
2018-05-08T07:40:09.386Z,2748.00
2018-05-08T07:41:09.383Z,2760.00
2018-05-08T07:42:09.401Z,2792.00
2018-05-08T07:43:09.561Z,2792.00
2018-05-08T07:44:09.428Z,2784.00
2018-05-08T07:45:09.605Z,2804.00
2018-05-08T07:46:09.467Z,2808.00
2018-05-08T07:47:09.960Z,2824.00
2018-05-08T07:48:09.499Z,2844.00
2018-05-08T07:49:09.522Z,2848.00
2018-05-08T07:50:09.574Z,2860.00
2018-05-08T07:51:09.556Z,2848.00
2018-05-08T07:52:09.600Z,2844.00
2018-05-08T07:53:09.604Z,2848.00
2018-05-08T07:54:09.622Z,2856.00
2018-05-08T07:55:09.642Z,2872.00
2018-05-08T07:56:09.807Z,2876.00
2018-05-08T07:57:09.666Z,2884.00
2018-05-08T07:58:09.686Z,2888.00
2018-05-08T07:59:09.702Z,2896.00
2018-05-08T08:00:09.758Z,2924.00
2018-05-08T08:01:09.752Z,2936.00
2018-05-08T08:02:09.783Z,2948.00
2018-05-08T08:03:09.819Z,2948.00
2018-05-08T08:04:09.830Z,2948.00
2018-05-08T08:05:09.826Z,2956.00
2018-05-08T08:06:09.871Z,3044.00
2018-05-08T08:07:09.858Z,2988.00
2018-05-08T08:08:10.070Z,2992.00
2018-05-08T08:09:09.933Z,2988.00
2018-05-08T08:10:10.018Z,3016.00
2018-05-08T08:11:09.987Z,3072.00
2018-05-08T08:12:09.955Z,3036.00
2018-05-08T08:13:10.075Z,3028.00
2018-05-08T08:14:10.039Z,3052.00
2018-05-08T08:15:10.012Z,3072.00
2018-05-08T08:16:10.032Z,3104.00
2018-05-08T08:17:10.070Z,3204.00
2018-05-08T08:18:10.066Z,3136.00
2018-05-08T08:19:10.074Z,3088.00
2018-05-08T08:20:10.091Z,3076.00
2018-05-08T08:21:10.113Z,3092.00
2018-05-08T08:22:10.127Z,3084.00
2018-05-08T08:23:10.146Z,3088.00
2018-05-08T08:24:10.168Z,3080.00
2018-05-08T08:25:10.188Z,3076.00
2018-05-08T08:26:10.203Z,3096.00
2018-05-08T08:27:10.221Z,3100.00
2018-05-08T08:28:10.243Z,3104.00
2018-05-08T08:29:10.261Z,3116.00
2018-05-08T08:30:10.276Z,3136.00
2018-05-08T08:31:10.303Z,3140.00
2018-05-08T08:32:10.315Z,3152.00
2018-05-08T08:33:10.335Z,3160.00
2018-05-08T08:34:10.354Z,3156.00
2018-05-08T08:35:10.386Z,3160.00
2018-05-08T08:36:10.392Z,3180.00
2018-05-08T08:37:10.410Z,3180.00
2018-05-08T08:38:10.434Z,3188.00
2018-05-08T08:39:10.445Z,3204.00
2018-05-08T08:40:10.464Z,3212.00
2018-05-08T08:41:10.487Z,3212.00
2018-05-08T08:42:10.517Z,3224.00
2018-05-08T08:43:10.606Z,3236.00
2018-05-08T08:44:10.555Z,3228.00
2018-05-08T08:45:10.620Z,3252.00
2018-05-08T08:46:10.645Z,3256.00
2018-05-08T08:47:10.604Z,3260.00
2018-05-08T08:48:10.630Z,3264.00
2018-05-08T08:49:10.642Z,3264.00
2018-05-08T08:50:10.674Z,3268.00
2018-05-08T08:51:10.677Z,3264.00
2018-05-08T08:52:11.200Z,3272.00
2018-05-08T08:53:10.715Z,3284.00
2018-05-08T08:54:10.935Z,3300.00
2018-05-08T08:55:10.812Z,3304.00
2018-05-08T08:56:10.827Z,3308.00
2018-05-08T08:57:10.796Z,3332.00
2018-05-08T08:58:10.833Z,3344.00
2018-05-08T08:59:10.827Z,3348.00
2018-05-08T09:00:10.846Z,3348.00
2018-05-08T09:01:10.944Z,3368.00
2018-05-08T09:02:10.888Z,3396.00
2018-05-08T09:03:10.911Z,3396.00
2018-05-08T09:04:10.934Z,3408.00
2018-05-08T09:05:10.944Z,3408.00
2018-05-08T09:06:10.962Z,3416.00
2018-05-08T09:07:10.980Z,3424.00
2018-05-08T09:08:11.006Z,3436.00
2018-05-08T09:09:11.063Z,3436.00
2018-05-08T09:10:11.039Z,3428.00
2018-05-08T09:11:11.099Z,3436.00
2018-05-08T09:12:11.076Z,3432.00
2018-05-08T09:13:11.102Z,3444.00
2018-05-08T09:14:11.121Z,3452.00
2018-05-08T09:15:11.139Z,3448.00
2018-05-08T09:16:11.183Z,3440.00
2018-05-08T09:17:11.185Z,3456.00
2018-05-08T09:18:11.194Z,3460.00
2018-05-08T09:19:11.633Z,3464.00
2018-05-08T09:20:11.242Z,3464.00
2018-05-08T09:21:11.302Z,3488.00
2018-05-08T09:22:11.273Z,3484.00
2018-05-08T09:23:11.374Z,3468.00
2018-05-08T09:24:11.357Z,3476.00
2018-05-08T09:25:11.337Z,3468.00
2018-05-08T09:26:11.353Z,3488.00
2018-05-08T09:27:11.372Z,3500.00
2018-05-08T09:28:11.388Z,3508.00
2018-05-08T09:29:11.408Z,3512.00
2018-05-08T09:31:11.446Z,3524.00
2018-05-08T09:32:11.471Z,3520.00
2018-05-08T09:33:11.499Z,3536.00
2018-05-08T09:34:11.507Z,3532.00
2018-05-08T09:35:11.525Z,3552.00
2018-05-08T09:36:11.546Z,3580.00
2018-05-08T09:37:11.565Z,3568.00
2018-05-08T09:38:11.584Z,3592.00
2018-05-08T09:39:11.602Z,3596.00
2018-05-08T09:40:11.716Z,3596.00
2018-05-08T09:41:11.653Z,3956.00
2018-05-08T09:42:11.663Z,3608.00
2018-05-08T09:43:11.684Z,3616.00
2018-05-08T09:44:11.707Z,3620.00
2018-05-08T09:45:11.731Z,3608.00
2018-05-08T09:46:11.744Z,3608.00
2018-05-08T09:47:11.773Z,3664.00
2018-05-08T09:48:11.785Z,3668.00
2018-05-08T09:49:11.886Z,3660.00
2018-05-08T09:50:11.835Z,3704.00
2018-05-08T09:51:11.845Z,3704.00
2018-05-08T09:52:11.862Z,3624.00
2018-05-08T09:53:12.016Z,3692.00
2018-05-08T09:54:14.105Z,3696.00
2018-05-08T09:55:12.097Z,3724.00
2018-05-08T09:56:11.953Z,3720.00
2018-05-08T09:57:11.969Z,3712.00
2018-05-08T09:58:11.985Z,3704.00
2018-05-08T09:59:12.002Z,3672.00
2018-05-08T10:00:12.024Z,3732.00
2018-05-08T10:01:12.043Z,3744.00
2018-05-08T10:02:12.063Z,3720.00
2018-05-08T10:03:12.083Z,3724.00
2018-05-08T10:04:12.104Z,3728.00
2018-05-08T10:05:12.128Z,3736.00
2018-05-08T10:06:12.145Z,3692.00
2018-05-08T10:07:12.166Z,3724.00
2018-05-08T10:08:12.183Z,3704.00
2018-05-08T10:09:12.205Z,3724.00
2018-05-08T10:10:12.228Z,3728.00
2018-05-08T10:11:12.267Z,3692.00
2018-05-08T10:12:12.269Z,3680.00
2018-05-08T10:13:12.306Z,3692.00
2018-05-08T10:14:12.309Z,3664.00
2018-05-08T10:15:12.326Z,3660.00
2018-05-08T10:16:12.348Z,3644.00
2018-05-08T10:17:12.375Z,3656.00
2018-05-08T10:18:12.390Z,3656.00
2018-05-08T10:19:12.407Z,3660.00
2018-05-08T10:20:12.431Z,3636.00
2018-05-08T10:21:12.448Z,3640.00
2018-05-08T10:22:12.473Z,3612.00
2018-05-08T10:23:12.489Z,3672.00
2018-05-08T10:24:12.509Z,3652.00
2018-05-08T10:25:12.539Z,3644.00
2018-05-08T10:26:12.554Z,3640.00
2018-05-08T10:27:12.590Z,3616.00
2018-05-08T10:28:12.596Z,3636.00
2018-05-08T10:29:12.615Z,3616.00
2018-05-08T10:30:12.645Z,3664.00
2018-05-08T10:31:12.664Z,3632.00
2018-05-08T10:32:12.676Z,3628.00
2018-05-08T10:33:12.693Z,3604.00
2018-05-08T10:34:12.717Z,3596.00
2018-05-08T10:35:12.756Z,3560.00
2018-05-08T10:36:12.798Z,3580.00
2018-05-08T10:37:12.786Z,3576.00
2018-05-08T10:38:12.857Z,3596.00
2018-05-08T10:39:12.822Z,3592.00
2018-05-08T10:40:12.893Z,3580.00
2018-05-08T10:41:12.872Z,3568.00
2018-05-08T10:42:12.980Z,3556.00
2018-05-08T10:43:12.898Z,3576.00
2018-05-08T10:44:12.923Z,3588.00
2018-05-08T10:45:12.948Z,3456.00
2018-05-08T10:46:13.022Z,3592.00
2018-05-08T10:47:12.980Z,3608.00
2018-05-08T10:48:13.005Z,3600.00
2018-05-08T10:49:13.023Z,3584.00
2018-05-08T10:50:13.045Z,3592.00
2018-05-08T10:51:13.065Z,3580.00
2018-05-08T10:52:13.087Z,3580.00
2018-05-08T10:53:13.104Z,3572.00
2018-05-08T10:54:13.125Z,3592.00
2018-05-08T10:55:13.152Z,3624.00
2018-05-08T10:56:13.173Z,3612.00
2018-05-08T10:57:13.190Z,3612.00
2018-05-08T10:58:13.209Z,3588.00
2018-05-08T10:59:13.230Z,3592.00
2018-05-08T11:00:13.251Z,3588.00
2018-05-08T11:01:13.275Z,3596.00
2018-05-08T11:02:13.323Z,3620.00
2018-05-08T11:03:13.322Z,3612.00
2018-05-08T11:04:13.569Z,3596.00
2018-05-08T11:05:13.356Z,3580.00
2018-05-08T11:06:13.376Z,3588.00
2018-05-08T11:07:13.397Z,3588.00
2018-05-08T11:08:13.419Z,3600.00
2018-05-08T11:09:13.439Z,3592.00
2018-05-08T11:10:13.529Z,3576.00
2018-05-08T11:11:13.485Z,3588.00
2018-05-08T11:12:13.499Z,3608.00
2018-05-08T11:13:13.523Z,3608.00
2018-05-08T11:14:13.568Z,3600.00
2018-05-08T11:15:13.566Z,3600.00
2018-05-08T11:16:13.585Z,3600.00
2018-05-08T11:17:13.666Z,3584.00
2018-05-08T11:18:13.634Z,3600.00
2018-05-08T11:19:13.652Z,3616.00
2018-05-08T11:20:13.669Z,3580.00
2018-05-08T11:21:13.691Z,3572.00
2018-05-08T11:22:13.713Z,3556.00
2018-05-08T11:23:13.736Z,3564.00
2018-05-08T11:24:13.758Z,3580.00
2018-05-08T11:25:13.775Z,3572.00
2018-05-08T11:26:13.807Z,3588.00
2018-05-08T11:27:14.981Z,3596.00
2018-05-08T11:28:13.840Z,3588.00
2018-05-08T11:29:13.866Z,3604.00
2018-05-08T11:30:13.878Z,3556.00
2018-05-08T11:31:13.899Z,3596.00
2018-05-08T11:32:13.921Z,3588.00
2018-05-08T11:33:13.965Z,3628.00
2018-05-08T11:34:13.962Z,3640.00
2018-05-08T11:35:14.082Z,3636.00
2018-05-08T11:36:14.017Z,3656.00
2018-05-08T11:37:14.040Z,3672.00
2018-05-08T11:38:14.053Z,3664.00
2018-05-08T11:39:14.077Z,3660.00
2018-05-08T11:40:14.089Z,3684.00
2018-05-08T11:41:14.110Z,3696.00
2018-05-08T11:42:14.139Z,3676.00
2018-05-08T11:43:14.152Z,3712.00
2018-05-08T11:44:14.175Z,3720.00
2018-05-08T11:45:14.195Z,3728.00
2018-05-08T11:46:14.219Z,3640.00
2018-05-08T11:47:14.237Z,3772.00
2018-05-08T11:48:14.266Z,3788.00
2018-05-08T11:49:14.279Z,3772.00
2018-05-08T11:50:14.302Z,3792.00
2018-05-08T11:51:14.325Z,3812.00
2018-05-08T11:52:14.345Z,3792.00
2018-05-08T11:53:14.370Z,3808.00
2018-05-08T11:54:14.394Z,3816.00
2018-05-08T11:55:14.443Z,3832.00
2018-05-08T11:56:14.430Z,3844.00
2018-05-08T11:57:14.453Z,3876.00
2018-05-08T11:58:14.477Z,3732.00
2018-05-08T11:59:14.494Z,3872.00
2018-05-08T12:00:14.518Z,3936.00
2018-05-08T12:02:14.561Z,4100.00
2018-05-08T12:03:14.580Z,4208.00
2018-05-08T12:04:14.613Z,4352.00
2018-05-08T12:05:14.946Z,4480.00
2018-05-08T12:06:14.648Z,4572.00
2018-05-08T12:07:14.672Z,4652.00
2018-05-08T12:08:14.688Z,4612.00
2018-05-08T12:09:14.884Z,4568.00
2018-05-08T12:12:14.868Z,4320.00
2018-05-08T12:13:14.823Z,4252.00
2018-05-08T12:14:14.819Z,4212.00
2018-05-08T12:15:14.844Z,4236.00
2018-05-08T12:16:14.862Z,4208.00
2018-05-08T12:17:14.890Z,4216.00
2018-05-08T12:18:14.916Z,4216.00
2018-05-08T12:19:14.927Z,4212.00
2018-05-08T12:20:14.949Z,4264.00
2018-05-08T12:21:14.972Z,4332.00
2018-05-08T12:22:14.996Z,4404.00
2018-05-08T12:23:15.014Z,4500.00
2018-05-08T12:24:15.040Z,4564.00
2018-05-08T12:25:15.060Z,4572.00
2018-05-08T12:26:15.082Z,4544.00
2018-05-08T12:27:15.106Z,4492.00
2018-05-08T12:28:15.136Z,4508.00
2018-05-08T12:29:15.157Z,4548.00
2018-05-08T12:30:15.172Z,4572.00
2018-05-08T12:31:15.190Z,4508.00
2018-05-08T12:32:15.215Z,4608.00
2018-05-08T12:33:15.239Z,4608.00
2018-05-08T12:34:15.264Z,4648.00
2018-05-08T12:35:15.276Z,4632.00
2018-05-08T12:36:15.397Z,4652.00
2018-05-08T12:37:15.321Z,4668.00
2018-05-08T12:38:15.422Z,4656.00
2018-05-08T12:39:15.369Z,4700.00
2018-05-08T12:40:15.387Z,4728.00